sensor_id;sensor_type;location;lat;lon;timestamp;P1;durP1;ratioP1;P2;durP2;ratioP2
67902;SDS011;54708;43.612;1.568;2023-04-15T00:01:23;29.85;;;6.65;;
67902;SDS011;54708;43.612;1.568;2023-04-15T00:03:50;35.75;;;7.82;;
67902;SDS011;54708;43.612;1.568;2023-04-15T00:06:16;27.70;;;7.38;;
67902;SDS011;54708;43.612;1.568;2023-04-15T00:08:43;23.05;;;7.38;;
67902;SDS011;54708;43.612;1.568;2023-04-15T00:11:09;27.23;;;6.32;;
67902;SDS011;54708;43.612;1.568;2023-04-15T00:13:34;31.95;;;8.40;;
67902;SDS011;54708;43.612;1.568;2023-04-15T00:16:00;34.03;;;8.57;;
67902;SDS011;54708;43.612;1.568;2023-04-15T00:18:26;35.95;;;8.52;;
67902;SDS011;54708;43.612;1.568;2023-04-15T00:20:51;39.35;;;8.73;;
67902;SDS011;54708;43.612;1.568;2023-04-15T00:23:17;33.90;;;7.95;;
67902;SDS011;54708;43.612;1.568;2023-04-15T00:25:43;32.08;;;7.22;;
67902;SDS011;54708;43.612;1.568;2023-04-15T00:28:08;29.42;;;6.65;;
67902;SDS011;54708;43.612;1.568;2023-04-15T00:30:34;30.70;;;8.35;;
67902;SDS011;54708;43.612;1.568;2023-04-15T00:32:59;25.30;;;5.85;;
67902;SDS011;54708;43.612;1.568;2023-04-15T00:35:26;28.73;;;7.82;;
67902;SDS011;54708;43.612;1.568;2023-04-15T00:37:51;30.17;;;7.53;;
67902;SDS011;54708;43.612;1.568;2023-04-15T00:40:18;32.13;;;8.30;;
67902;SDS011;54708;43.612;1.568;2023-04-15T00:42:45;28.33;;;7.35;;
67902;SDS011;54708;43.612;1.568;2023-04-15T00:45:10;34.85;;;7.57;;
67902;SDS011;54708;43.612;1.568;2023-04-15T00:47:36;32.03;;;7.47;;
67902;SDS011;54708;43.612;1.568;2023-04-15T00:50:02;34.78;;;7.85;;
67902;SDS011;54708;43.612;1.568;2023-04-15T00:52:27;24.77;;;5.90;;
67902;SDS011;54708;43.612;1.568;2023-04-15T00:54:53;30.73;;;6.45;;
67902;SDS011;54708;43.612;1.568;2023-04-15T00:57:19;35.92;;;8.85;;
67902;SDS011;54708;43.612;1.568;2023-04-15T00:59:46;38.30;;;7.88;;
67902;SDS011;54708;43.612;1.568;2023-04-15T01:02:11;40.22;;;10.05;;
67902;SDS011;54708;43.612;1.568;2023-04-15T01:04:37;21.90;;;6.95;;
67902;SDS011;54708;43.612;1.568;2023-04-15T01:07:02;35.70;;;7.47;;
67902;SDS011;54708;43.612;1.568;2023-04-15T01:09:27;31.33;;;6.78;;
67902;SDS011;54708;43.612;1.568;2023-04-15T01:11:53;35.17;;;6.75;;
67902;SDS011;54708;43.612;1.568;2023-04-15T01:14:18;32.55;;;7.18;;
67902;SDS011;54708;43.612;1.568;2023-04-15T01:16:44;27.00;;;7.90;;
67902;SDS011;54708;43.612;1.568;2023-04-15T01:19:10;38.78;;;7.95;;
67902;SDS011;54708;43.612;1.568;2023-04-15T01:21:36;35.92;;;7.43;;
67902;SDS011;54708;43.612;1.568;2023-04-15T01:24:08;26.42;;;6.45;;
67902;SDS011;54708;43.612;1.568;2023-04-15T01:26:38;22.83;;;6.03;;
67902;SDS011;54708;43.612;1.568;2023-04-15T01:29:04;24.10;;;7.10;;
67902;SDS011;54708;43.612;1.568;2023-04-15T01:31:30;28.90;;;6.88;;
67902;SDS011;54708;43.612;1.568;2023-04-15T01:33:56;30.15;;;7.03;;
67902;SDS011;54708;43.612;1.568;2023-04-15T01:36:22;17.35;;;6.13;;
67902;SDS011;54708;43.612;1.568;2023-04-15T01:38:49;28.02;;;7.55;;
67902;SDS011;54708;43.612;1.568;2023-04-15T01:41:15;32.47;;;7.22;;
67902;SDS011;54708;43.612;1.568;2023-04-15T01:43:41;39.05;;;8.77;;
67902;SDS011;54708;43.612;1.568;2023-04-15T01:46:06;25.98;;;4.80;;
67902;SDS011;54708;43.612;1.568;2023-04-15T01:48:32;30.25;;;7.82;;
67902;SDS011;54708;43.612;1.568;2023-04-15T01:50:58;32.22;;;7.80;;
67902;SDS011;54708;43.612;1.568;2023-04-15T01:53:24;29.27;;;6.15;;
67902;SDS011;54708;43.612;1.568;2023-04-15T01:55:50;31.10;;;6.38;;
67902;SDS011;54708;43.612;1.568;2023-04-15T01:58:16;25.15;;;4.88;;
67902;SDS011;54708;43.612;1.568;2023-04-15T02:00:42;20.60;;;4.93;;
67902;SDS011;54708;43.612;1.568;2023-04-15T02:03:07;18.30;;;4.70;;
67902;SDS011;54708;43.612;1.568;2023-04-15T02:05:33;17.52;;;5.25;;
67902;SDS011;54708;43.612;1.568;2023-04-15T02:07:59;25.73;;;5.55;;
67902;SDS011;54708;43.612;1.568;2023-04-15T02:10:25;22.05;;;6.88;;
67902;SDS011;54708;43.612;1.568;2023-04-15T02:12:50;20.23;;;3.33;;
67902;SDS011;54708;43.612;1.568;2023-04-15T02:15:15;18.75;;;3.95;;
67902;SDS011;54708;43.612;1.568;2023-04-15T02:17:41;22.55;;;4.55;;
67902;SDS011;54708;43.612;1.568;2023-04-15T02:20:09;15.00;;;4.05;;
67902;SDS011;54708;43.612;1.568;2023-04-15T02:22:36;19.00;;;5.65;;
67902;SDS011;54708;43.612;1.568;2023-04-15T02:25:01;19.58;;;4.88;;
67902;SDS011;54708;43.612;1.568;2023-04-15T02:27:27;22.27;;;5.63;;
67902;SDS011;54708;43.612;1.568;2023-04-15T02:29:53;17.15;;;4.50;;
67902;SDS011;54708;43.612;1.568;2023-04-15T02:32:18;20.27;;;4.15;;
67902;SDS011;54708;43.612;1.568;2023-04-15T02:34:44;16.63;;;3.90;;
67902;SDS011;54708;43.612;1.568;2023-04-15T02:37:10;32.28;;;5.32;;
67902;SDS011;54708;43.612;1.568;2023-04-15T02:39:36;21.38;;;5.75;;
67902;SDS011;54708;43.612;1.568;2023-04-15T02:42:02;20.27;;;4.90;;
67902;SDS011;54708;43.612;1.568;2023-04-15T02:44:27;20.88;;;5.05;;
67902;SDS011;54708;43.612;1.568;2023-04-15T02:46:53;20.33;;;3.95;;
67902;SDS011;54708;43.612;1.568;2023-04-15T02:49:22;22.65;;;4.88;;
67902;SDS011;54708;43.612;1.568;2023-04-15T02:51:47;25.08;;;5.18;;
67902;SDS011;54708;43.612;1.568;2023-04-15T02:54:20;21.90;;;5.63;;
67902;SDS011;54708;43.612;1.568;2023-04-15T02:56:49;22.08;;;4.65;;
67902;SDS011;54708;43.612;1.568;2023-04-15T02:59:16;12.80;;;4.68;;
67902;SDS011;54708;43.612;1.568;2023-04-15T03:01:41;19.13;;;4.07;;
67902;SDS011;54708;43.612;1.568;2023-04-15T03:04:06;20.35;;;5.40;;
67902;SDS011;54708;43.612;1.568;2023-04-15T03:06:33;21.23;;;4.63;;
67902;SDS011;54708;43.612;1.568;2023-04-15T03:08:58;15.60;;;3.70;;
67902;SDS011;54708;43.612;1.568;2023-04-15T03:11:24;19.58;;;5.80;;
67902;SDS011;54708;43.612;1.568;2023-04-15T03:13:51;18.63;;;4.78;;
67902;SDS011;54708;43.612;1.568;2023-04-15T03:16:16;17.05;;;3.85;;
67902;SDS011;54708;43.612;1.568;2023-04-15T03:18:42;17.48;;;3.60;;
67902;SDS011;54708;43.612;1.568;2023-04-15T03:21:07;24.60;;;6.35;;
67902;SDS011;54708;43.612;1.568;2023-04-15T03:23:32;15.80;;;3.25;;
67902;SDS011;54708;43.612;1.568;2023-04-15T03:26:00;13.75;;;3.75;;
67902;SDS011;54708;43.612;1.568;2023-04-15T03:28:26;12.38;;;3.28;;
67902;SDS011;54708;43.612;1.568;2023-04-15T03:30:51;13.32;;;2.83;;
67902;SDS011;54708;43.612;1.568;2023-04-15T03:33:16;11.68;;;3.40;;
67902;SDS011;54708;43.612;1.568;2023-04-15T03:35:42;11.38;;;2.35;;
67902;SDS011;54708;43.612;1.568;2023-04-15T03:38:07;14.65;;;2.85;;
67902;SDS011;54708;43.612;1.568;2023-04-15T03:40:33;7.40;;;2.10;;
67902;SDS011;54708;43.612;1.568;2023-04-15T03:42:58;7.00;;;1.98;;
67902;SDS011;54708;43.612;1.568;2023-04-15T03:45:24;7.40;;;2.22;;
67902;SDS011;54708;43.612;1.568;2023-04-15T03:47:49;8.55;;;2.58;;
67902;SDS011;54708;43.612;1.568;2023-04-15T03:50:15;7.35;;;1.90;;
67902;SDS011;54708;43.612;1.568;2023-04-15T03:52:40;7.00;;;1.73;;
67902;SDS011;54708;43.612;1.568;2023-04-15T03:55:05;5.22;;;1.85;;
67902;SDS011;54708;43.612;1.568;2023-04-15T03:57:32;6.90;;;2.20;;
67902;SDS011;54708;43.612;1.568;2023-04-15T04:00:02;13.10;;;2.35;;
67902;SDS011;54708;43.612;1.568;2023-04-15T04:02:28;5.90;;;2.20;;
67902;SDS011;54708;43.612;1.568;2023-04-15T04:04:53;12.48;;;3.50;;
67902;SDS011;54708;43.612;1.568;2023-04-15T04:07:19;6.65;;;2.17;;
67902;SDS011;54708;43.612;1.568;2023-04-15T04:09:44;10.73;;;3.05;;
67902;SDS011;54708;43.612;1.568;2023-04-15T04:12:10;16.70;;;4.22;;
67902;SDS011;54708;43.612;1.568;2023-04-15T04:14:35;14.60;;;3.28;;
67902;SDS011;54708;43.612;1.568;2023-04-15T04:17:01;11.85;;;3.65;;
67902;SDS011;54708;43.612;1.568;2023-04-15T04:19:26;11.57;;;3.17;;
67902;SDS011;54708;43.612;1.568;2023-04-15T04:21:51;12.77;;;2.40;;
67902;SDS011;54708;43.612;1.568;2023-04-15T04:24:17;12.25;;;2.97;;
67902;SDS011;54708;43.612;1.568;2023-04-15T04:26:42;12.05;;;3.72;;
67902;SDS011;54708;43.612;1.568;2023-04-15T04:29:08;14.07;;;3.65;;
67902;SDS011;54708;43.612;1.568;2023-04-15T04:31:33;9.40;;;2.55;;
67902;SDS011;54708;43.612;1.568;2023-04-15T04:33:59;17.08;;;5.07;;
67902;SDS011;54708;43.612;1.568;2023-04-15T04:36:24;8.77;;;2.92;;
67902;SDS011;54708;43.612;1.568;2023-04-15T04:38:50;15.30;;;3.25;;
67902;SDS011;54708;43.612;1.568;2023-04-15T04:41:16;12.85;;;4.05;;
67902;SDS011;54708;43.612;1.568;2023-04-15T04:43:42;16.38;;;4.10;;
67902;SDS011;54708;43.612;1.568;2023-04-15T04:46:07;14.80;;;3.95;;
67902;SDS011;54708;43.612;1.568;2023-04-15T04:48:33;17.42;;;3.55;;
67902;SDS011;54708;43.612;1.568;2023-04-15T04:50:58;12.63;;;3.15;;
67902;SDS011;54708;43.612;1.568;2023-04-15T04:53:23;18.38;;;4.53;;
67902;SDS011;54708;43.612;1.568;2023-04-15T04:55:49;12.85;;;4.38;;
67902;SDS011;54708;43.612;1.568;2023-04-15T04:58:15;16.83;;;3.72;;
67902;SDS011;54708;43.612;1.568;2023-04-15T05:00:40;16.75;;;4.13;;
67902;SDS011;54708;43.612;1.568;2023-04-15T05:03:06;19.48;;;5.32;;
67902;SDS011;54708;43.612;1.568;2023-04-15T05:05:31;19.33;;;4.03;;
67902;SDS011;54708;43.612;1.568;2023-04-15T05:07:56;16.73;;;3.35;;
67902;SDS011;54708;43.612;1.568;2023-04-15T05:10:22;18.05;;;5.35;;
67902;SDS011;54708;43.612;1.568;2023-04-15T05:12:47;30.20;;;5.35;;
67902;SDS011;54708;43.612;1.568;2023-04-15T05:15:13;16.73;;;4.15;;
67902;SDS011;54708;43.612;1.568;2023-04-15T05:17:38;18.15;;;4.00;;
67902;SDS011;54708;43.612;1.568;2023-04-15T05:20:03;21.35;;;5.82;;
67902;SDS011;54708;43.612;1.568;2023-04-15T05:22:29;22.33;;;5.03;;
67902;SDS011;54708;43.612;1.568;2023-04-15T05:24:55;27.08;;;5.80;;
67902;SDS011;54708;43.612;1.568;2023-04-15T05:27:20;23.00;;;4.05;;
67902;SDS011;54708;43.612;1.568;2023-04-15T05:29:47;18.42;;;4.22;;
67902;SDS011;54708;43.612;1.568;2023-04-15T05:32:12;17.67;;;3.72;;
67902;SDS011;54708;43.612;1.568;2023-04-15T05:34:38;16.70;;;4.43;;
67902;SDS011;54708;43.612;1.568;2023-04-15T05:37:03;11.32;;;3.60;;
67902;SDS011;54708;43.612;1.568;2023-04-15T05:39:28;13.32;;;3.83;;
67902;SDS011;54708;43.612;1.568;2023-04-15T05:41:55;12.15;;;3.45;;
67902;SDS011;54708;43.612;1.568;2023-04-15T05:44:21;20.48;;;3.90;;
67902;SDS011;54708;43.612;1.568;2023-04-15T05:46:46;13.48;;;3.60;;
67902;SDS011;54708;43.612;1.568;2023-04-15T05:49:12;14.65;;;3.92;;
67902;SDS011;54708;43.612;1.568;2023-04-15T05:51:37;13.10;;;3.20;;
67902;SDS011;54708;43.612;1.568;2023-04-15T05:54:03;15.43;;;3.13;;
67902;SDS011;54708;43.612;1.568;2023-04-15T05:56:28;9.45;;;3.00;;
67902;SDS011;54708;43.612;1.568;2023-04-15T05:58:53;12.10;;;3.03;;
67902;SDS011;54708;43.612;1.568;2023-04-15T06:01:19;10.27;;;3.13;;
67902;SDS011;54708;43.612;1.568;2023-04-15T06:03:44;9.95;;;3.15;;
67902;SDS011;54708;43.612;1.568;2023-04-15T06:06:10;9.60;;;3.03;;
67902;SDS011;54708;43.612;1.568;2023-04-15T06:08:35;9.82;;;2.72;;
67902;SDS011;54708;43.612;1.568;2023-04-15T06:11:01;8.63;;;2.03;;
67902;SDS011;54708;43.612;1.568;2023-04-15T06:13:26;7.53;;;2.40;;
67902;SDS011;54708;43.612;1.568;2023-04-15T06:15:51;6.78;;;2.42;;
67902;SDS011;54708;43.612;1.568;2023-04-15T06:18:17;7.18;;;2.65;;
67902;SDS011;54708;43.612;1.568;2023-04-15T06:20:44;9.95;;;2.92;;
67902;SDS011;54708;43.612;1.568;2023-04-15T06:23:09;8.23;;;2.20;;
67902;SDS011;54708;43.612;1.568;2023-04-15T06:25:35;5.03;;;2.10;;
67902;SDS011;54708;43.612;1.568;2023-04-15T06:28:00;5.70;;;1.95;;
67902;SDS011;54708;43.612;1.568;2023-04-15T06:30:26;5.15;;;0.98;;
67902;SDS011;54708;43.612;1.568;2023-04-15T06:32:51;3.33;;;1.05;;
67902;SDS011;54708;43.612;1.568;2023-04-15T06:35:17;2.58;;;1.50;;
67902;SDS011;54708;43.612;1.568;2023-04-15T06:37:43;2.58;;;1.30;;
67902;SDS011;54708;43.612;1.568;2023-04-15T06:40:08;3.92;;;1.10;;
67902;SDS011;54708;43.612;1.568;2023-04-15T06:42:34;2.70;;;1.90;;
67902;SDS011;54708;43.612;1.568;2023-04-15T06:45:01;4.60;;;1.65;;
67902;SDS011;54708;43.612;1.568;2023-04-15T06:47:26;2.47;;;1.40;;
67902;SDS011;54708;43.612;1.568;2023-04-15T06:49:52;6.03;;;1.88;;
67902;SDS011;54708;43.612;1.568;2023-04-15T06:52:17;2.78;;;1.52;;
67902;SDS011;54708;43.612;1.568;2023-04-15T06:54:43;7.22;;;2.30;;
67902;SDS011;54708;43.612;1.568;2023-04-15T06:57:08;6.15;;;1.85;;
67902;SDS011;54708;43.612;1.568;2023-04-15T06:59:34;2.90;;;2.00;;
67902;SDS011;54708;43.612;1.568;2023-04-15T07:01:59;7.63;;;1.67;;
67902;SDS011;54708;43.612;1.568;2023-04-15T07:04:25;5.15;;;2.08;;
67902;SDS011;54708;43.612;1.568;2023-04-15T07:06:51;6.60;;;2.28;;
67902;SDS011;54708;43.612;1.568;2023-04-15T07:09:18;5.32;;;2.35;;
67902;SDS011;54708;43.612;1.568;2023-04-15T07:11:43;6.80;;;2.15;;
67902;SDS011;54708;43.612;1.568;2023-04-15T07:14:09;8.65;;;1.85;;
67902;SDS011;54708;43.612;1.568;2023-04-15T07:16:35;5.55;;;1.95;;
67902;SDS011;54708;43.612;1.568;2023-04-15T07:19:00;6.70;;;1.75;;
67902;SDS011;54708;43.612;1.568;2023-04-15T07:21:25;11.30;;;2.90;;
67902;SDS011;54708;43.612;1.568;2023-04-15T07:23:51;6.95;;;2.40;;
67902;SDS011;54708;43.612;1.568;2023-04-15T07:26:17;9.05;;;2.17;;
67902;SDS011;54708;43.612;1.568;2023-04-15T07:28:42;8.80;;;1.98;;
67902;SDS011;54708;43.612;1.568;2023-04-15T07:31:08;7.60;;;2.38;;
67902;SDS011;54708;43.612;1.568;2023-04-15T07:33:33;8.35;;;2.08;;
67902;SDS011;54708;43.612;1.568;2023-04-15T07:35:58;11.50;;;2.85;;
67902;SDS011;54708;43.612;1.568;2023-04-15T07:38:24;12.98;;;1.90;;
67902;SDS011;54708;43.612;1.568;2023-04-15T07:40:50;8.05;;;3.33;;
67902;SDS011;54708;43.612;1.568;2023-04-15T07:43:15;10.45;;;2.92;;
67902;SDS011;54708;43.612;1.568;2023-04-15T07:45:41;6.97;;;2.40;;
67902;SDS011;54708;43.612;1.568;2023-04-15T07:48:06;10.02;;;2.55;;
67902;SDS011;54708;43.612;1.568;2023-04-15T07:50:32;19.65;;;2.95;;
67902;SDS011;54708;43.612;1.568;2023-04-15T07:52:57;10.18;;;2.60;;
67902;SDS011;54708;43.612;1.568;2023-04-15T07:55:23;9.95;;;2.83;;
67902;SDS011;54708;43.612;1.568;2023-04-15T07:57:48;12.07;;;2.22;;
67902;SDS011;54708;43.612;1.568;2023-04-15T08:00:14;3.53;;;2.38;;
67902;SDS011;54708;43.612;1.568;2023-04-15T08:02:40;11.10;;;2.00;;
67902;SDS011;54708;43.612;1.568;2023-04-15T08:05:10;8.95;;;2.10;;
67902;SDS011;54708;43.612;1.568;2023-04-15T08:07:38;10.85;;;3.58;;
67902;SDS011;54708;43.612;1.568;2023-04-15T08:10:03;15.52;;;3.83;;
67902;SDS011;54708;43.612;1.568;2023-04-15T08:12:29;11.23;;;3.45;;
67902;SDS011;54708;43.612;1.568;2023-04-15T08:14:55;7.22;;;2.80;;
67902;SDS011;54708;43.612;1.568;2023-04-15T08:17:21;8.90;;;3.70;;
67902;SDS011;54708;43.612;1.568;2023-04-15T08:19:47;11.13;;;2.78;;
67902;SDS011;54708;43.612;1.568;2023-04-15T08:22:12;12.30;;;3.58;;
67902;SDS011;54708;43.612;1.568;2023-04-15T08:24:38;6.90;;;2.20;;
67902;SDS011;54708;43.612;1.568;2023-04-15T08:27:03;5.65;;;2.40;;
67902;SDS011;54708;43.612;1.568;2023-04-15T08:29:30;7.53;;;3.38;;
67902;SDS011;54708;43.612;1.568;2023-04-15T08:31:55;19.00;;;3.80;;
67902;SDS011;54708;43.612;1.568;2023-04-15T08:34:21;10.55;;;2.55;;
67902;SDS011;54708;43.612;1.568;2023-04-15T08:36:47;7.82;;;2.50;;
67902;SDS011;54708;43.612;1.568;2023-04-15T08:39:13;6.22;;;2.30;;
67902;SDS011;54708;43.612;1.568;2023-04-15T08:41:48;11.35;;;2.97;;
67902;SDS011;54708;43.612;1.568;2023-04-15T08:44:16;8.27;;;2.38;;
67902;SDS011;54708;43.612;1.568;2023-04-15T08:46:42;13.32;;;3.22;;
67902;SDS011;54708;43.612;1.568;2023-04-15T08:49:09;11.55;;;2.20;;
67902;SDS011;54708;43.612;1.568;2023-04-15T08:51:36;10.63;;;3.20;;
67902;SDS011;54708;43.612;1.568;2023-04-15T08:54:02;12.70;;;3.97;;
67902;SDS011;54708;43.612;1.568;2023-04-15T08:56:29;5.20;;;2.20;;
67902;SDS011;54708;43.612;1.568;2023-04-15T08:58:56;16.58;;;3.38;;
67902;SDS011;54708;43.612;1.568;2023-04-15T09:01:23;7.90;;;2.50;;
67902;SDS011;54708;43.612;1.568;2023-04-15T09:03:48;15.70;;;3.53;;
67902;SDS011;54708;43.612;1.568;2023-04-15T09:06:19;10.23;;;2.42;;
67902;SDS011;54708;43.612;1.568;2023-04-15T09:08:45;10.82;;;2.85;;
67902;SDS011;54708;43.612;1.568;2023-04-15T09:11:11;14.48;;;3.63;;
67902;SDS011;54708;43.612;1.568;2023-04-15T09:13:37;7.68;;;2.55;;
67902;SDS011;54708;43.612;1.568;2023-04-15T09:16:03;13.52;;;2.55;;
67902;SDS011;54708;43.612;1.568;2023-04-15T09:18:30;10.65;;;2.80;;
67902;SDS011;54708;43.612;1.568;2023-04-15T09:21:06;13.32;;;3.00;;
67902;SDS011;54708;43.612;1.568;2023-04-15T09:23:35;6.93;;;2.53;;
67902;SDS011;54708;43.612;1.568;2023-04-15T09:26:02;6.85;;;2.85;;
67902;SDS011;54708;43.612;1.568;2023-04-15T09:28:28;5.95;;;1.92;;
67902;SDS011;54708;43.612;1.568;2023-04-15T09:30:54;8.20;;;2.42;;
67902;SDS011;54708;43.612;1.568;2023-04-15T09:33:24;9.20;;;4.00;;
67902;SDS011;54708;43.612;1.568;2023-04-15T09:36:02;6.47;;;2.38;;
67902;SDS011;54708;43.612;1.568;2023-04-15T09:38:29;10.10;;;2.30;;
67902;SDS011;54708;43.612;1.568;2023-04-15T09:40:55;6.85;;;2.28;;
67902;SDS011;54708;43.612;1.568;2023-04-15T09:43:22;9.02;;;2.28;;
67902;SDS011;54708;43.612;1.568;2023-04-15T09:45:50;7.72;;;2.30;;
67902;SDS011;54708;43.612;1.568;2023-04-15T09:48:24;10.57;;;3.58;;
67902;SDS011;54708;43.612;1.568;2023-04-15T09:50:53;7.07;;;1.70;;
67902;SDS011;54708;43.612;1.568;2023-04-15T09:53:22;5.63;;;1.80;;
67902;SDS011;54708;43.612;1.568;2023-04-15T09:58:32;5.78;;;2.17;;
67902;SDS011;54708;43.612;1.568;2023-04-15T10:00:59;5.97;;;1.80;;
67902;SDS011;54708;43.612;1.568;2023-04-15T10:03:30;10.73;;;3.75;;
67902;SDS011;54708;43.612;1.568;2023-04-15T10:06:00;9.50;;;2.40;;
67902;SDS011;54708;43.612;1.568;2023-04-15T10:08:32;6.80;;;1.90;;
67902;SDS011;54708;43.612;1.568;2023-04-15T10:10:59;7.63;;;1.63;;
67902;SDS011;54708;43.612;1.568;2023-04-15T10:13:26;8.52;;;3.10;;
67902;SDS011;54708;43.612;1.568;2023-04-15T10:16:02;7.18;;;2.08;;
67902;SDS011;54708;43.612;1.568;2023-04-15T10:18:31;5.43;;;2.20;;
67902;SDS011;54708;43.612;1.568;2023-04-15T10:20:59;4.45;;;2.40;;
67902;SDS011;54708;43.612;1.568;2023-04-15T10:23:25;8.70;;;2.50;;
67902;SDS011;54708;43.612;1.568;2023-04-15T10:25:52;4.35;;;2.10;;
67902;SDS011;54708;43.612;1.568;2023-04-15T10:28:20;5.75;;;1.77;;
67902;SDS011;54708;43.612;1.568;2023-04-15T10:30:49;10.35;;;2.28;;
67902;SDS011;54708;43.612;1.568;2023-04-15T10:33:14;10.90;;;1.88;;
67902;SDS011;54708;43.612;1.568;2023-04-15T10:35:41;6.53;;;1.58;;
67902;SDS011;54708;43.612;1.568;2023-04-15T10:43:50;7.93;;;1.63;;
67902;SDS011;54708;43.612;1.568;2023-04-15T10:46:22;4.43;;;1.60;;
67902;SDS011;54708;43.612;1.568;2023-04-15T10:48:50;8.68;;;1.70;;
67902;SDS011;54708;43.612;1.568;2023-04-15T10:51:25;4.03;;;1.50;;
67902;SDS011;54708;43.612;1.568;2023-04-15T10:53:54;8.20;;;1.90;;
67902;SDS011;54708;43.612;1.568;2023-04-15T10:56:21;6.75;;;1.65;;
67902;SDS011;54708;43.612;1.568;2023-04-15T10:58:47;9.13;;;2.20;;
67902;SDS011;54708;43.612;1.568;2023-04-15T11:01:12;9.07;;;2.47;;
67902;SDS011;54708;43.612;1.568;2023-04-15T11:03:38;6.18;;;2.00;;
67902;SDS011;54708;43.612;1.568;2023-04-15T11:06:05;7.22;;;1.52;;
67902;SDS011;54708;43.612;1.568;2023-04-15T11:11:37;7.82;;;2.00;;
67902;SDS011;54708;43.612;1.568;2023-04-15T11:14:26;12.10;;;2.05;;
67902;SDS011;54708;43.612;1.568;2023-04-15T11:16:52;5.05;;;2.03;;
67902;SDS011;54708;43.612;1.568;2023-04-15T11:19:17;7.57;;;2.78;;
67902;SDS011;54708;43.612;1.568;2023-04-15T11:21:42;5.50;;;1.77;;
67902;SDS011;54708;43.612;1.568;2023-04-15T11:24:08;6.32;;;1.40;;
67902;SDS011;54708;43.612;1.568;2023-04-15T11:26:33;7.03;;;1.77;;
67902;SDS011;54708;43.612;1.568;2023-04-15T11:28:59;7.38;;;1.75;;
67902;SDS011;54708;43.612;1.568;2023-04-15T11:31:26;2.65;;;1.42;;
67902;SDS011;54708;43.612;1.568;2023-04-15T11:33:56;3.80;;;1.35;;
67902;SDS011;54708;43.612;1.568;2023-04-15T11:36:26;5.38;;;1.80;;
67902;SDS011;54708;43.612;1.568;2023-04-15T11:38:53;13.38;;;2.95;;
67902;SDS011;54708;43.612;1.568;2023-04-15T11:41:19;8.00;;;3.42;;
67902;SDS011;54708;43.612;1.568;2023-04-15T11:43:46;12.57;;;1.73;;
67902;SDS011;54708;43.612;1.568;2023-04-15T11:46:11;7.47;;;1.63;;
67902;SDS011;54708;43.612;1.568;2023-04-15T11:48:40;5.25;;;2.15;;
67902;SDS011;54708;43.612;1.568;2023-04-15T11:51:07;3.63;;;1.70;;
67902;SDS011;54708;43.612;1.568;2023-04-15T11:58:46;3.47;;;1.75;;
67902;SDS011;54708;43.612;1.568;2023-04-15T12:01:12;5.05;;;1.48;;
67902;SDS011;54708;43.612;1.568;2023-04-15T12:03:38;2.65;;;1.67;;
67902;SDS011;54708;43.612;1.568;2023-04-15T12:06:23;5.18;;;1.40;;
67902;SDS011;54708;43.612;1.568;2023-04-15T12:08:56;7.90;;;2.33;;
67902;SDS011;54708;43.612;1.568;2023-04-15T12:16:44;6.05;;;1.45;;
67902;SDS011;54708;43.612;1.568;2023-04-15T12:19:13;2.92;;;1.40;;
67902;SDS011;54708;43.612;1.568;2023-04-15T12:21:43;6.25;;;1.45;;
67902;SDS011;54708;43.612;1.568;2023-04-15T12:24:10;1.95;;;1.25;;
67902;SDS011;54708;43.612;1.568;2023-04-15T12:26:37;3.00;;;1.13;;
67902;SDS011;54708;43.612;1.568;2023-04-15T12:29:09;3.78;;;1.50;;
67902;SDS011;54708;43.612;1.568;2023-04-15T12:31:35;8.88;;;1.75;;
67902;SDS011;54708;43.612;1.568;2023-04-15T12:34:01;4.93;;;1.75;;
67902;SDS011;54708;43.612;1.568;2023-04-15T12:36:27;2.85;;;1.58;;
67902;SDS011;54708;43.612;1.568;2023-04-15T12:38:54;2.72;;;1.20;;
67902;SDS011;54708;43.612;1.568;2023-04-15T12:41:20;7.65;;;1.77;;
67902;SDS011;54708;43.612;1.568;2023-04-15T12:43:46;6.15;;;1.60;;
67902;SDS011;54708;43.612;1.568;2023-04-15T12:46:12;6.03;;;2.10;;
67902;SDS011;54708;43.612;1.568;2023-04-15T12:48:37;3.75;;;1.48;;
67902;SDS011;54708;43.612;1.568;2023-04-15T12:51:03;2.17;;;1.90;;
67902;SDS011;54708;43.612;1.568;2023-04-15T12:53:28;7.25;;;2.85;;
67902;SDS011;54708;43.612;1.568;2023-04-15T12:55:53;6.88;;;3.03;;
67902;SDS011;54708;43.612;1.568;2023-04-15T12:58:19;4.05;;;1.83;;
67902;SDS011;54708;43.612;1.568;2023-04-15T13:00:45;4.70;;;1.70;;
67902;SDS011;54708;43.612;1.568;2023-04-15T13:03:11;6.57;;;2.13;;
67902;SDS011;54708;43.612;1.568;2023-04-15T13:05:37;7.07;;;1.40;;
67902;SDS011;54708;43.612;1.568;2023-04-15T13:08:03;9.73;;;2.47;;
67902;SDS011;54708;43.612;1.568;2023-04-15T13:10:29;8.90;;;3.05;;
67902;SDS011;54708;43.612;1.568;2023-04-15T13:12:55;4.85;;;1.70;;
67902;SDS011;54708;43.612;1.568;2023-04-15T13:15:21;6.15;;;2.10;;
67902;SDS011;54708;43.612;1.568;2023-04-15T13:17:47;9.75;;;5.07;;
67902;SDS011;54708;43.612;1.568;2023-04-15T13:20:13;2.10;;;1.48;;
67902;SDS011;54708;43.612;1.568;2023-04-15T13:22:38;4.90;;;2.30;;
67902;SDS011;54708;43.612;1.568;2023-04-15T13:25:04;2.58;;;1.48;;
67902;SDS011;54708;43.612;1.568;2023-04-15T13:27:31;11.50;;;2.80;;
67902;SDS011;54708;43.612;1.568;2023-04-15T13:29:56;5.07;;;1.70;;
67902;SDS011;54708;43.612;1.568;2023-04-15T13:32:21;3.30;;;1.83;;
67902;SDS011;54708;43.612;1.568;2023-04-15T13:34:47;6.85;;;3.50;;
67902;SDS011;54708;43.612;1.568;2023-04-15T13:37:12;4.25;;;1.98;;
67902;SDS011;54708;43.612;1.568;2023-04-15T13:39:38;5.85;;;1.73;;
67902;SDS011;54708;43.612;1.568;2023-04-15T13:42:03;7.63;;;1.95;;
67902;SDS011;54708;43.612;1.568;2023-04-15T13:44:29;4.15;;;1.98;;
67902;SDS011;54708;43.612;1.568;2023-04-15T13:46:54;6.25;;;1.40;;
67902;SDS011;54708;43.612;1.568;2023-04-15T13:49:20;5.10;;;1.63;;
67902;SDS011;54708;43.612;1.568;2023-04-15T13:51:45;5.03;;;2.22;;
67902;SDS011;54708;43.612;1.568;2023-04-15T13:54:11;3.78;;;1.75;;
67902;SDS011;54708;43.612;1.568;2023-04-15T13:56:36;2.38;;;1.60;;
67902;SDS011;54708;43.612;1.568;2023-04-15T13:59:01;4.93;;;2.17;;
67902;SDS011;54708;43.612;1.568;2023-04-15T14:01:27;5.60;;;1.58;;
67902;SDS011;54708;43.612;1.568;2023-04-15T14:03:53;5.15;;;1.73;;
67902;SDS011;54708;43.612;1.568;2023-04-15T14:06:18;3.45;;;1.25;;
67902;SDS011;54708;43.612;1.568;2023-04-15T14:08:44;2.45;;;1.50;;
67902;SDS011;54708;43.612;1.568;2023-04-15T14:11:10;3.42;;;1.35;;
67902;SDS011;54708;43.612;1.568;2023-04-15T14:13:35;3.58;;;1.08;;
67902;SDS011;54708;43.612;1.568;2023-04-15T14:16:01;3.00;;;1.10;;
67902;SDS011;54708;43.612;1.568;2023-04-15T14:18:26;2.55;;;1.30;;
67902;SDS011;54708;43.612;1.568;2023-04-15T14:20:52;4.63;;;1.50;;
67902;SDS011;54708;43.612;1.568;2023-04-15T14:23:17;2.72;;;1.23;;
67902;SDS011;54708;43.612;1.568;2023-04-15T14:25:43;4.10;;;1.65;;
67902;SDS011;54708;43.612;1.568;2023-04-15T14:28:08;3.55;;;1.45;;
67902;SDS011;54708;43.612;1.568;2023-04-15T14:30:34;4.68;;;0.98;;
67902;SDS011;54708;43.612;1.568;2023-04-15T14:32:59;5.85;;;1.10;;
67902;SDS011;54708;43.612;1.568;2023-04-15T14:35:25;9.40;;;1.33;;
67902;SDS011;54708;43.612;1.568;2023-04-15T14:37:54;6.88;;;2.35;;
67902;SDS011;54708;43.612;1.568;2023-04-15T14:40:20;10.13;;;2.75;;
67902;SDS011;54708;43.612;1.568;2023-04-15T14:42:46;5.88;;;1.85;;
67902;SDS011;54708;43.612;1.568;2023-04-15T14:45:11;6.38;;;2.53;;
67902;SDS011;54708;43.612;1.568;2023-04-15T14:47:37;2.70;;;1.10;;
67902;SDS011;54708;43.612;1.568;2023-04-15T14:50:03;2.90;;;1.23;;
67902;SDS011;54708;43.612;1.568;2023-04-15T14:52:29;5.10;;;1.35;;
67902;SDS011;54708;43.612;1.568;2023-04-15T14:54:57;5.55;;;1.65;;
67902;SDS011;54708;43.612;1.568;2023-04-15T14:57:22;2.30;;;1.30;;